Аэропорт: Витебск Восточный. Витебск

ICAO: UMII

METAR:
2018/11/19 10:10
UMII 191010Z 04005MPS 2200 BR OVC004 01/01 Q1031 R05/290054 TEMPO 1700 BKN003 RMK QBB120
METAR:
2018/01/28 15:24
TAF TAF UMII 281405Z 2815/2924 19004G09MPS 2000 SN BR OVC005 
      TEMPO 2815/2824 0500 FZDZ FZFG VV002